Time;durP1;ratioP1;P1;durP2;ratioP2;P2;SDS_P1;SDS_P2;PMS_P1;PMS_P2;Temp;Humidity;BMP_temperature;BMP_pressure;BME280_temperature;BME280_humidity;BME280_pressure;Samples;Min_cycle;Max_cycle;Signal;HPM_P1;HPM_P2
2023/03/04 00:02:16;;;;;;;43.55;34.63;;;;;;;;;;5144734;28;20398;-86
2023/03/04 00:04:43;;;;;;;40.83;33.40;;;;;;;;;;5144137;28;20201;-85
2023/03/04 00:07:11;;;;;;;43.58;35.42;;;;;;;;;;5145221;28;20259;-85
2023/03/04 00:09:38;;;;;;;47.95;36.35;;;;;;;;;;5145316;28;20248;-85
2023/03/04 00:12:07;;;;;;;41.53;33.78;;;;;;;;;;5144581;28;20254;-86
2023/03/04 00:14:35;;;;;;;45.63;34.47;;;;;;;;;;5144334;28;20209;-85
2023/03/04 00:17:03;;;;;;;42.40;34.50;;;;;;;;;;5145120;28;20278;-85
2023/03/04 00:19:30;;;;;;;43.67;35.70;;;;;;;;;;5145047;28;20296;-85
2023/03/04 00:21:57;;;;;;;49.67;36.47;;;;;;;;;;5144357;28;20200;-85
2023/03/04 00:24:26;;;;;;;48.00;35.92;;;;;;;;;;5145610;28;20250;-85
2023/03/04 00:26:53;;;;;;;38.45;33.40;;;;;;;;;;5145473;27;20213;-85
2023/03/04 00:29:20;;;;;;;51.20;36.67;;;;;;;;;;5148820;27;20243;-85
2023/03/04 00:31:49;;;;;;;42.67;35.25;;;;;;;;;;5148656;27;20227;-85
2023/03/04 00:34:16;;;;;;;46.90;33.75;;;;;;;;;;5148493;27;20209;-85
2023/03/04 00:36:43;;;;;;;40.75;35.20;;;;;;;;;;5148732;27;20233;-85
2023/03/04 00:39:10;;;;;;;41.30;35.17;;;;;;;;;;5148961;27;20730;-85
2023/03/04 00:41:37;;;;;;;44.28;34.75;;;;;;;;;;5148689;27;20225;-86
2023/03/04 00:44:05;;;;;;;43.45;33.85;;;;;;;;;;5148385;27;20201;-85
2023/03/04 00:46:32;;;;;;;46.05;36.20;;;;;;;;;;5148625;27;20265;-85
2023/03/04 00:49:01;;;;;;;45.75;35.33;;;;;;;;;;5148072;27;20193;-86
2023/03/04 00:51:28;;;;;;;43.42;36.00;;;;;;;;;;5147691;27;20208;-86
2023/03/04 00:53:55;;;;;;;41.83;34.45;;;;;;;;;;5147777;27;20201;-86
2023/03/04 00:56:22;;;;;;;51.63;37.22;;;;;;;;;;5147234;27;20220;-85
2023/03/04 00:58:49;;;;;;;44.03;34.50;;;;;;;;;;5148188;27;20201;-85
2023/03/04 01:01:16;;;;;;;45.20;35.00;;;;;;;;;;5147239;27;20304;-86
2023/03/04 01:03:43;;;;;;;42.28;34.50;;;;;;;;;;5147841;27;20447;-85
2023/03/04 01:06:11;;;;;;;38.45;34.25;;;;;;;;;;5147532;27;20700;-85
2023/03/04 01:08:39;;;;;;;44.47;35.05;;;;;;;;;;5147702;27;20193;-85
2023/03/04 01:11:06;;;;;;;43.65;35.20;;;;;;;;;;5147615;27;20277;-86
2023/03/04 01:13:33;;;;;;;39.42;34.50;;;;;;;;;;5147398;27;20605;-85
2023/03/04 01:16:00;;;;;;;39.77;32.80;;;;;;;;;;5160198;27;20278;-85
2023/03/04 01:18:27;;;;;;;41.03;33.70;;;;;;;;;;5161174;27;20526;-85
2023/03/04 01:20:54;;;;;;;40.65;34.70;;;;;;;;;;5156428;27;20223;-86
2023/03/04 01:23:22;;;;;;;39.90;33.30;;;;;;;;;;5151122;27;20205;-85
2023/03/04 01:25:49;;;;;;;39.87;33.00;;;;;;;;;;5150730;27;20441;-86
2023/03/04 01:28:16;;;;;;;29.55;24.40;;;;;;;;;;5149735;27;20974;-85
2023/03/04 01:30:43;;;;;;;27.85;24.83;;;;;;;;;;5148406;27;20251;-85
2023/03/04 01:33:10;;;;;;;24.70;22.48;;;;;;;;;;5148670;27;20230;-85
2023/03/04 01:35:37;;;;;;;25.20;22.70;;;;;;;;;;5147987;27;20262;-86
2023/03/04 01:38:04;;;;;;;23.33;21.23;;;;;;;;;;5147760;27;20613;-85
2023/03/04 01:40:33;;;;;;;22.83;20.52;;;;;;;;;;5148063;27;20774;-85
2023/03/04 01:43:00;;;;;;;22.65;19.67;;;;;;;;;;5146882;27;20206;-85
2023/03/04 01:45:27;;;;;;;22.83;20.48;;;;;;;;;;5146748;27;20711;-85
2023/03/04 01:47:54;;;;;;;22.33;20.23;;;;;;;;;;5147316;27;20178;-85
2023/03/04 01:50:23;;;;;;;22.15;19.73;;;;;;;;;;5146756;27;20246;-85
2023/03/04 01:52:50;;;;;;;22.98;20.83;;;;;;;;;;5146668;27;20201;-85
2023/03/04 01:55:18;;;;;;;21.87;19.67;;;;;;;;;;5146714;27;20221;-85
2023/03/04 01:57:47;;;;;;;22.03;19.77;;;;;;;;;;5145523;27;20459;-85
2023/03/04 02:00:22;;;;;;;21.65;19.95;;;;;;;;;;5146609;27;20915;-85
2023/03/04 02:02:51;;;;;;;30.30;21.92;;;;;;;;;;5146162;27;20197;-85
2023/03/04 02:05:18;;;;;;;22.40;20.17;;;;;;;;;;5146156;27;20254;-85
2023/03/04 02:07:45;;;;;;;25.30;20.30;;;;;;;;;;5146100;27;20235;-85
2023/03/04 02:10:13;;;;;;;23.55;21.13;;;;;;;;;;5146581;27;20213;-85
2023/03/04 02:12:40;;;;;;;23.83;20.95;;;;;;;;;;5145776;27;20204;-85
2023/03/04 02:15:09;;;;;;;22.02;19.92;;;;;;;;;;5146000;27;20254;-85
2023/03/04 02:17:36;;;;;;;22.70;20.42;;;;;;;;;;5146497;27;20205;-85
2023/03/04 02:20:07;;;;;;;22.40;20.33;;;;;;;;;;5145860;27;20270;-85
2023/03/04 02:22:36;;;;;;;22.83;20.93;;;;;;;;;;5145819;27;20235;-85
2023/03/04 02:25:06;;;;;;;22.15;20.08;;;;;;;;;;5146761;27;20405;-85
2023/03/04 02:27:34;;;;;;;26.02;20.90;;;;;;;;;;5146285;27;20197;-85
2023/03/04 02:30:01;;;;;;;21.30;19.60;;;;;;;;;;5145768;27;20221;-85
2023/03/04 02:32:28;;;;;;;23.53;21.27;;;;;;;;;;5145443;27;20209;-85
2023/03/04 02:34:56;;;;;;;25.98;20.50;;;;;;;;;;5146256;27;20427;-85
2023/03/04 02:37:23;;;;;;;22.15;20.10;;;;;;;;;;5146206;27;20201;-85
2023/03/04 02:39:50;;;;;;;25.13;21.17;;;;;;;;;;5146141;27;20205;-85
2023/03/04 02:42:18;;;;;;;22.30;20.17;;;;;;;;;;5145374;27;20205;-85
2023/03/04 02:44:49;;;;;;;22.77;20.67;;;;;;;;;;5145648;27;20502;-85
2023/03/04 02:47:17;;;;;;;22.15;20.23;;;;;;;;;;5145168;27;20256;-85
2023/03/04 02:49:44;;;;;;;21.98;19.98;;;;;;;;;;5144531;27;20241;-86
2023/03/04 02:52:13;;;;;;;22.65;20.33;;;;;;;;;;5144624;27;20226;-85
2023/03/04 02:54:40;;;;;;;22.38;20.15;;;;;;;;;;5145847;27;20208;-86
2023/03/04 02:57:08;;;;;;;22.17;20.23;;;;;;;;;;5145631;27;20225;-85
2023/03/04 02:59:35;;;;;;;22.10;20.05;;;;;;;;;;5145246;27;20284;-84
2023/03/04 03:02:04;;;;;;;23.80;19.58;;;;;;;;;;5145853;27;20205;-85
2023/03/04 03:04:31;;;;;;;22.43;20.33;;;;;;;;;;5146981;27;20205;-85
2023/03/04 03:06:58;;;;;;;21.10;19.50;;;;;;;;;;5146847;27;20855;-85
2023/03/04 03:09:25;;;;;;;21.48;19.67;;;;;;;;;;5146831;27;20235;-85
2023/03/04 03:11:52;;;;;;;20.90;19.10;;;;;;;;;;5145997;27;20258;-85
2023/03/04 03:14:19;;;;;;;20.55;19.17;;;;;;;;;;5146516;27;20209;-85
2023/03/04 03:16:46;;;;;;;23.50;20.52;;;;;;;;;;5146372;27;20708;-86
2023/03/04 03:19:14;;;;;;;20.70;19.30;;;;;;;;;;5146758;27;20189;-85
2023/03/04 03:21:41;;;;;;;21.77;19.77;;;;;;;;;;5146519;27;20222;-85
2023/03/04 03:24:08;;;;;;;21.67;20.00;;;;;;;;;;5147063;27;20450;-85
2023/03/04 03:26:38;;;;;;;20.27;19.00;;;;;;;;;;5147099;27;20509;-85
2023/03/04 03:29:05;;;;;;;20.90;19.02;;;;;;;;;;5147001;27;20209;-85
2023/03/04 03:31:32;;;;;;;21.40;19.48;;;;;;;;;;5145699;28;20221;-85
2023/03/04 03:33:59;;;;;;;22.00;20.02;;;;;;;;;;5147673;28;20197;-85
2023/03/04 03:36:28;;;;;;;20.80;19.00;;;;;;;;;;5146100;28;20221;-85
2023/03/04 03:38:55;;;;;;;22.02;19.83;;;;;;;;;;5147195;28;20189;-85
2023/03/04 03:41:22;;;;;;;20.90;19.10;;;;;;;;;;5146951;28;20219;-86
2023/03/04 03:43:49;;;;;;;29.08;20.38;;;;;;;;;;5146575;28;20201;-85
2023/03/04 03:46:16;;;;;;;21.50;19.65;;;;;;;;;;5147502;28;20536;-85
2023/03/04 03:48:43;;;;;;;22.98;20.55;;;;;;;;;;5147393;28;20232;-85
2023/03/04 03:51:10;;;;;;;21.73;19.40;;;;;;;;;;5147143;28;20250;-86
2023/03/04 03:53:38;;;;;;;21.38;19.38;;;;;;;;;;5146524;28;20189;-85
2023/03/04 03:56:07;;;;;;;20.63;19.15;;;;;;;;;;5147284;28;20210;-85
2023/03/04 03:58:34;;;;;;;20.90;18.98;;;;;;;;;;5147094;28;20186;-85
2023/03/04 04:01:01;;;;;;;22.30;20.13;;;;;;;;;;5147932;27;20211;-85
2023/03/04 04:03:28;;;;;;;26.35;21.65;;;;;;;;;;5150969;27;20553;-85
2023/03/04 04:05:55;;;;;;;22.13;20.55;;;;;;;;;;5150438;27;20228;-85
2023/03/04 04:08:22;;;;;;;21.77;19.92;;;;;;;;;;5150077;27;20654;-85
2023/03/04 04:10:51;;;;;;;21.23;19.75;;;;;;;;;;5149582;27;20265;-85
2023/03/04 04:13:18;;;;;;;22.25;20.25;;;;;;;;;;5149739;27;20254;-85
2023/03/04 04:15:45;;;;;;;21.63;19.85;;;;;;;;;;5149721;27;20221;-85
2023/03/04 04:18:12;;;;;;;21.20;19.50;;;;;;;;;;5150138;27;20198;-85
2023/03/04 04:20:39;;;;;;;21.38;19.27;;;;;;;;;;5149623;27;20201;-85
2023/03/04 04:23:06;;;;;;;22.05;19.60;;;;;;;;;;5150206;27;20690;-85
2023/03/04 04:25:33;;;;;;;21.40;19.70;;;;;;;;;;5150859;27;20289;-85
2023/03/04 04:28:01;;;;;;;30.05;27.30;;;;;;;;;;5149859;27;20198;-85
2023/03/04 04:30:28;;;;;;;22.87;20.87;;;;;;;;;;5149990;27;20217;-85
2023/03/04 04:32:55;;;;;;;23.42;20.90;;;;;;;;;;5149506;27;20442;-85
2023/03/04 04:35:22;;;;;;;20.75;19.35;;;;;;;;;;5149095;27;20229;-86
2023/03/04 04:37:49;;;;;;;22.25;20.55;;;;;;;;;;5149704;27;20185;-85
2023/03/04 04:40:16;;;;;;;25.73;20.45;;;;;;;;;;5149718;27;20197;-85
2023/03/04 04:42:43;;;;;;;22.00;20.00;;;;;;;;;;5149114;27;20201;-85
2023/03/04 04:45:14;;;;;;;21.07;19.33;;;;;;;;;;5149996;27;20218;-85
2023/03/04 04:47:41;;;;;;;23.27;21.17;;;;;;;;;;5149278;27;20455;-85
2023/03/04 04:50:08;;;;;;;24.75;22.63;;;;;;;;;;5149699;27;20455;-85
2023/03/04 04:52:35;;;;;;;21.98;19.95;;;;;;;;;;5149402;27;20603;-85
2023/03/04 04:55:02;;;;;;;22.00;20.00;;;;;;;;;;5149219;27;20257;-85
2023/03/04 04:57:30;;;;;;;21.97;20.03;;;;;;;;;;5149417;27;20209;-86
2023/03/04 04:59:56;;;;;;;24.67;19.93;;;;;;;;;;5149454;27;20850;-84
2023/03/04 05:02:25;;;;;;;21.60;19.63;;;;;;;;;;5148935;27;20447;-85
2023/03/04 05:04:52;;;;;;;21.73;19.77;;;;;;;;;;5148735;27;20231;-85
2023/03/04 05:07:19;;;;;;;21.85;20.10;;;;;;;;;;5149701;27;20661;-85
2023/03/04 05:09:46;;;;;;;21.37;19.80;;;;;;;;;;5149700;27;20253;-85
2023/03/04 05:12:13;;;;;;;21.35;19.67;;;;;;;;;;5147773;27;20471;-85
2023/03/04 05:14:40;;;;;;;21.30;19.63;;;;;;;;;;5148647;27;20205;-85
2023/03/04 05:17:07;;;;;;;21.88;20.13;;;;;;;;;;5149524;27;20209;-85
2023/03/04 05:19:36;;;;;;;22.88;20.55;;;;;;;;;;5149159;27;20218;-85
2023/03/04 05:22:03;;;;;;;21.23;19.38;;;;;;;;;;5148549;27;20197;-85
2023/03/04 05:24:30;;;;;;;21.02;19.63;;;;;;;;;;5148839;27;20692;-85
2023/03/04 05:26:57;;;;;;;21.77;19.80;;;;;;;;;;5149140;27;20214;-85
2023/03/04 05:29:24;;;;;;;20.48;19.10;;;;;;;;;;5156959;27;20178;-85
2023/03/04 05:31:51;;;;;;;22.07;20.00;;;;;;;;;;5160658;27;20225;-84
2023/03/04 05:34:18;;;;;;;22.08;20.10;;;;;;;;;;5158193;27;20435;-85
2023/03/04 05:36:46;;;;;;;21.55;19.55;;;;;;;;;;5151952;27;20221;-85
2023/03/04 05:39:13;;;;;;;19.83;18.53;;;;;;;;;;5150902;27;20193;-85
2023/03/04 05:41:40;;;;;;;21.38;19.52;;;;;;;;;;5149501;27;20874;-85
2023/03/04 05:44:07;;;;;;;21.42;19.25;;;;;;;;;;5150625;27;20202;-85
2023/03/04 05:46:34;;;;;;;21.67;19.98;;;;;;;;;;5148984;27;20269;-86
2023/03/04 05:49:01;;;;;;;21.58;19.75;;;;;;;;;;5149950;27;20205;-85
2023/03/04 05:51:28;;;;;;;21.27;19.45;;;;;;;;;;5148324;27;20262;-86
2023/03/04 05:53:57;;;;;;;21.65;20.05;;;;;;;;;;5149408;27;20609;-85
2023/03/04 05:56:24;;;;;;;22.13;19.95;;;;;;;;;;5148599;27;20228;-85
2023/03/04 05:58:51;;;;;;;21.07;19.73;;;;;;;;;;5148379;27;20205;-85
2023/03/04 06:01:18;;;;;;;21.38;19.40;;;;;;;;;;5148333;27;20450;-86
2023/03/04 06:03:47;;;;;;;21.08;19.17;;;;;;;;;;5147969;27;20205;-85
2023/03/04 06:06:14;;;;;;;23.65;21.45;;;;;;;;;;5147643;27;20323;-85
2023/03/04 06:08:41;;;;;;;20.10;18.73;;;;;;;;;;5147962;27;20649;-85
2023/03/04 06:11:09;;;;;;;21.48;19.50;;;;;;;;;;5147658;27;20218;-85
2023/03/04 06:13:37;;;;;;;20.98;19.33;;;;;;;;;;5146277;27;20262;-85
2023/03/04 06:16:04;;;;;;;20.55;19.08;;;;;;;;;;5147362;27;20232;-85
2023/03/04 06:18:31;;;;;;;20.95;19.77;;;;;;;;;;5147183;27;20201;-85
2023/03/04 06:20:58;;;;;;;21.13;19.30;;;;;;;;;;5146697;27;20247;-85
2023/03/04 06:23:25;;;;;;;21.80;20.50;;;;;;;;;;5146527;27;20296;-85
2023/03/04 06:25:53;;;;;;;27.92;21.02;;;;;;;;;;5146179;27;20224;-85
2023/03/04 06:28:21;;;;;;;22.40;20.35;;;;;;;;;;5145975;27;20253;-85
2023/03/04 06:30:48;;;;;;;22.73;20.80;;;;;;;;;;5145824;27;20218;-85
2023/03/04 06:33:15;;;;;;;20.63;19.13;;;;;;;;;;5145273;27;20848;-84
2023/03/04 06:35:43;;;;;;;22.38;19.05;;;;;;;;;;5145216;27;20217;-84
2023/03/04 06:38:10;;;;;;;19.80;18.42;;;;;;;;;;5144886;27;20657;-84
2023/03/04 06:40:37;;;;;;;21.10;19.17;;;;;;;;;;5146291;27;20746;-85
2023/03/04 06:43:04;;;;;;;21.50;19.70;;;;;;;;;;5144535;27;20193;-85
2023/03/04 06:45:32;;;;;;;20.08;18.63;;;;;;;;;;5146526;27;20220;-86
2023/03/04 06:47:59;;;;;;;21.73;19.90;;;;;;;;;;5145788;27;20209;-84
2023/03/04 06:50:26;;;;;;;20.73;19.33;;;;;;;;;;5145638;27;20261;-85
2023/03/04 06:52:53;;;;;;;32.65;30.13;;;;;;;;;;5145495;27;20220;-84
2023/03/04 06:55:20;;;;;;;31.90;28.80;;;;;;;;;;5145902;27;20213;-85
2023/03/04 06:57:47;;;;;;;21.45;19.75;;;;;;;;;;5144855;27;20209;-85
2023/03/04 07:00:15;;;;;;;21.45;20.02;;;;;;;;;;5144990;27;20201;-85
2023/03/04 07:02:43;;;;;;;22.02;20.20;;;;;;;;;;5143908;27;20205;-84
2023/03/04 07:05:10;;;;;;;23.88;21.42;;;;;;;;;;5145429;27;20201;-85
2023/03/04 07:07:38;;;;;;;22.45;20.60;;;;;;;;;;5145355;27;20197;-85
2023/03/04 07:10:05;;;;;;;20.55;19.15;;;;;;;;;;5144980;27;20193;-85
2023/03/04 07:12:32;;;;;;;20.95;19.42;;;;;;;;;;5144533;27;20251;-85
2023/03/04 07:14:59;;;;;;;20.63;18.95;;;;;;;;;;5145526;27;20209;-85
2023/03/04 07:17:26;;;;;;;20.88;18.80;;;;;;;;;;5145587;27;20234;-85
2023/03/04 07:19:54;;;;;;;20.05;18.75;;;;;;;;;;5145294;27;20202;-85
2023/03/04 07:22:21;;;;;;;20.00;18.55;;;;;;;;;;5145067;27;20208;-85
2023/03/04 07:24:48;;;;;;;20.92;19.08;;;;;;;;;;5144340;27;20209;-85
2023/03/04 07:27:15;;;;;;;20.92;18.67;;;;;;;;;;5145475;27;20225;-85
2023/03/04 07:29:42;;;;;;;20.60;18.80;;;;;;;;;;5145622;27;20649;-85
2023/03/04 07:32:09;;;;;;;20.17;18.63;;;;;;;;;;5145219;27;20239;-85
2023/03/04 07:34:36;;;;;;;19.70;18.48;;;;;;;;;;5144864;28;20231;-85
2023/03/04 07:37:05;;;;;;;21.75;19.65;;;;;;;;;;5150136;27;20270;-85
2023/03/04 07:39:32;;;;;;;20.60;19.10;;;;;;;;;;5152492;27;20258;-85
2023/03/04 07:41:59;;;;;;;20.67;19.13;;;;;;;;;;5151735;27;20197;-85
2023/03/04 07:44:26;;;;;;;20.60;19.00;;;;;;;;;;5150463;27;20208;-86
2023/03/04 07:46:53;;;;;;;22.02;19.67;;;;;;;;;;5148088;27;20225;-80
2023/03/04 07:49:20;;;;;;;19.88;18.42;;;;;;;;;;5146041;27;20197;-86
2023/03/04 07:51:47;;;;;;;19.83;18.42;;;;;;;;;;5145788;27;20242;-88
2023/03/04 07:54:15;;;;;;;21.75;20.05;;;;;;;;;;5145439;27;20246;-85
2023/03/04 07:56:42;;;;;;;20.98;19.17;;;;;;;;;;5149209;27;20270;-83
2023/03/04 07:59:09;;;;;;;20.13;18.48;;;;;;;;;;5152062;27;20472;-83
2023/03/04 08:01:37;;;;;;;20.10;18.40;;;;;;;;;;5152156;27;20219;-83
2023/03/04 08:04:05;;;;;;;19.58;18.08;;;;;;;;;;5152081;27;20227;-83
2023/03/04 08:06:32;;;;;;;18.75;17.45;;;;;;;;;;5152453;27;20213;-83
2023/03/04 08:09:00;;;;;;;20.08;18.67;;;;;;;;;;5150796;27;20205;-83
2023/03/04 08:11:29;;;;;;;21.13;18.80;;;;;;;;;;5150195;27;20704;-83
2023/03/04 08:13:56;;;;;;;19.50;18.35;;;;;;;;;;5149780;27;20209;-82
2023/03/04 08:16:23;;;;;;;20.55;18.70;;;;;;;;;;5149687;27;20234;-82
2023/03/04 08:18:52;;;;;;;19.50;18.17;;;;;;;;;;5150296;27;20193;-83
2023/03/04 08:21:20;;;;;;;19.45;18.05;;;;;;;;;;5149331;27;20204;-83
2023/03/04 08:23:47;;;;;;;20.50;19.17;;;;;;;;;;5151185;27;20706;-83
2023/03/04 08:26:29;;;;;;;19.67;18.23;;;;;;;;;;5100075;27;20577;-82
2023/03/04 08:28:56;;;;;;;18.40;17.20;;;;;;;;;;5101251;28;20617;-83
2023/03/04 08:31:23;;;;;;;20.08;18.33;;;;;;;;;;5098773;28;20261;-83
2023/03/04 08:33:51;;;;;;;19.02;17.60;;;;;;;;;;5099120;28;20199;-83
2023/03/04 08:36:18;;;;;;;22.27;20.77;;;;;;;;;;5092976;28;20224;-81
2023/03/04 08:38:45;;;;;;;22.58;20.98;;;;;;;;;;5086421;28;20616;-86
2023/03/04 08:41:13;;;;;;;19.77;18.55;;;;;;;;;;5077612;28;20230;-89
2023/03/04 08:43:41;;;;;;;19.33;17.88;;;;;;;;;;5079986;28;20199;-83
2023/03/04 08:46:08;;;;;;;19.17;17.92;;;;;;;;;;5086670;28;20232;-82
2023/03/04 08:48:37;;;;;;;19.70;18.17;;;;;;;;;;5098526;28;20566;-83
2023/03/04 08:51:07;;;;;;;21.20;19.45;;;;;;;;;;5098147;28;20718;-83
2023/03/04 08:53:34;;;;;;;18.85;17.85;;;;;;;;;;5098164;28;20613;-83
2023/03/04 08:56:01;;;;;;;19.58;18.38;;;;;;;;;;5097483;28;20227;-83
2023/03/04 08:58:28;;;;;;;21.20;19.05;;;;;;;;;;5096741;28;20202;-83
2023/03/04 09:00:56;;;;;;;21.67;20.02;;;;;;;;;;5095569;28;20253;-79
2023/03/04 09:03:23;;;;;;;20.02;18.13;;;;;;;;;;5097297;28;20230;-82
2023/03/04 09:05:50;;;;;;;20.83;18.85;;;;;;;;;;5097900;28;20288;-82
2023/03/04 09:08:18;;;;;;;18.95;17.65;;;;;;;;;;5098497;28;20200;-82
2023/03/04 09:10:45;;;;;;;20.13;18.92;;;;;;;;;;5096817;28;20203;-81
2023/03/04 09:13:13;;;;;;;19.50;17.88;;;;;;;;;;5096616;28;20201;-81
2023/03/04 09:15:44;;;;;;;19.45;18.05;;;;;;;;;;5095469;28;20649;-79
2023/03/04 09:18:12;;;;;;;20.13;18.38;;;;;;;;;;5091071;28;20191;-78
2023/03/04 09:20:39;;;;;;;18.23;17.20;;;;;;;;;;5090076;28;20208;-76
2023/03/04 09:23:08;;;;;;;19.80;18.27;;;;;;;;;;5088177;28;20202;-76
2023/03/04 09:25:35;;;;;;;20.17;18.75;;;;;;;;;;5090038;28;20231;-77
2023/03/04 09:28:02;;;;;;;20.10;18.90;;;;;;;;;;5090266;28;20265;-78
2023/03/04 09:30:29;;;;;;;19.55;18.35;;;;;;;;;;5092017;28;20443;-74
2023/03/04 09:32:57;;;;;;;19.25;18.05;;;;;;;;;;5090376;28;20199;-85
2023/03/04 09:35:26;;;;;;;20.33;19.07;;;;;;;;;;5090258;28;20683;-76
2023/03/04 09:37:54;;;;;;;20.05;18.70;;;;;;;;;;5076477;28;20488;-77
2023/03/04 09:40:22;;;;;;;18.75;17.55;;;;;;;;;;5077316;28;20211;-79
2023/03/04 09:42:50;;;;;;;19.25;17.83;;;;;;;;;;5076650;28;20188;-78
2023/03/04 09:45:19;;;;;;;19.73;18.48;;;;;;;;;;5077403;28;20223;-79
2023/03/04 09:47:47;;;;;;;20.20;18.58;;;;;;;;;;5076893;28;20257;-79
2023/03/04 09:50:14;;;;;;;19.60;18.42;;;;;;;;;;5077763;28;20249;-78
2023/03/04 09:52:50;;;;;;;20.60;18.80;;;;;;;;;;5076697;28;20207;-79
2023/03/04 09:55:21;;;;;;;20.07;18.77;;;;;;;;;;5077307;28;20280;-79
2023/03/04 09:57:51;;;;;;;19.30;18.30;;;;;;;;;;5077357;28;20413;-79
2023/03/04 10:00:19;;;;;;;20.13;18.50;;;;;;;;;;5077364;28;20193;-78
2023/03/04 10:02:52;;;;;;;19.42;18.25;;;;;;;;;;5076829;28;20425;-79
2023/03/04 10:05:21;;;;;;;20.27;19.03;;;;;;;;;;5076733;28;20770;-78
2023/03/04 10:07:55;;;;;;;19.13;17.97;;;;;;;;;;5076951;28;20500;-78
2023/03/04 10:10:24;;;;;;;19.05;17.85;;;;;;;;;;5077145;28;20962;-78
2023/03/04 10:12:53;;;;;;;20.50;19.03;;;;;;;;;;5078772;28;20210;-78
2023/03/04 10:15:23;;;;;;;19.80;18.70;;;;;;;;;;5080436;28;20440;-79
2023/03/04 10:17:53;;;;;;;21.97;20.43;;;;;;;;;;5079695;28;20505;-79
2023/03/04 10:20:22;;;;;;;20.63;19.40;;;;;;;;;;5079809;28;20530;-78
2023/03/04 10:22:51;;;;;;;19.67;18.53;;;;;;;;;;5078496;28;20284;-78
2023/03/04 10:25:20;;;;;;;23.48;21.90;;;;;;;;;;5077684;28;20515;-78
2023/03/04 10:27:50;;;;;;;20.50;19.30;;;;;;;;;;5076474;28;20671;-78
2023/03/04 10:30:21;;;;;;;19.73;18.40;;;;;;;;;;5076741;28;20513;-79
2023/03/04 10:32:48;;;;;;;19.98;18.98;;;;;;;;;;5076934;28;20414;-78
2023/03/04 10:35:15;;;;;;;21.73;20.33;;;;;;;;;;5076544;28;20223;-79
2023/03/04 10:37:47;;;;;;;20.42;19.10;;;;;;;;;;5076749;28;20205;-79
2023/03/04 10:40:24;;;;;;;20.48;19.27;;;;;;;;;;5076669;28;20203;-79
2023/03/04 10:42:52;;;;;;;20.10;18.80;;;;;;;;;;5076738;28;20694;-78
2023/03/04 10:45:23;;;;;;;20.10;19.00;;;;;;;;;;5080994;28;20490;-78
2023/03/04 10:47:54;;;;;;;20.10;18.65;;;;;;;;;;5080199;28;20187;-79
2023/03/04 10:50:24;;;;;;;18.77;17.83;;;;;;;;;;5082929;28;20208;-79
2023/03/04 10:52:54;;;;;;;18.77;17.98;;;;;;;;;;5083159;28;20490;-79
2023/03/04 10:55:24;;;;;;;19.15;18.15;;;;;;;;;;5080006;28;20225;-79
2023/03/04 10:57:52;;;;;;;19.97;18.97;;;;;;;;;;5083113;28;20211;-79
2023/03/04 11:00:27;;;;;;;21.20;19.75;;;;;;;;;;5080090;28;20422;-79
2023/03/04 11:03:13;;;;;;;20.35;19.20;;;;;;;;;;5081823;28;20214;-79
2023/03/04 11:05:40;;;;;;;21.58;20.05;;;;;;;;;;5085919;28;20235;-79
2023/03/04 11:08:17;;;;;;;21.77;20.30;;;;;;;;;;5087017;28;20201;-79
2023/03/04 11:10:45;;;;;;;21.90;20.30;;;;;;;;;;5084573;28;20956;-79
2023/03/04 11:13:14;;;;;;;23.70;21.90;;;;;;;;;;5082379;28;20467;-79
2023/03/04 11:15:49;;;;;;;21.30;19.70;;;;;;;;;;5083075;28;20838;-78
2023/03/04 11:18:17;;;;;;;20.63;19.23;;;;;;;;;;5081776;28;20431;-78
2023/03/04 11:20:47;;;;;;;20.23;18.90;;;;;;;;;;5077728;28;20206;-78
2023/03/04 11:23:17;;;;;;;19.67;18.33;;;;;;;;;;5076028;28;20301;-78
2023/03/04 11:25:48;;;;;;;19.40;18.20;;;;;;;;;;5082040;28;20487;-78
2023/03/04 11:28:17;;;;;;;20.17;18.60;;;;;;;;;;5085334;28;20212;-79
2023/03/04 11:30:46;;;;;;;18.93;17.77;;;;;;;;;;5082933;28;20474;-79
2023/03/04 11:33:16;;;;;;;19.70;18.13;;;;;;;;;;5075675;28;20429;-78
2023/03/04 11:35:46;;;;;;;18.90;17.70;;;;;;;;;;5076403;28;20468;-78
2023/03/04 11:38:17;;;;;;;18.65;17.45;;;;;;;;;;5077808;28;20897;-82
2023/03/04 11:40:47;;;;;;;18.93;17.60;;;;;;;;;;5075833;28;20190;-79
2023/03/04 11:43:16;;;;;;;17.77;16.73;;;;;;;;;;5075272;28;20836;-80
2023/03/04 11:46:05;;;;;;;18.73;17.40;;;;;;;;;;5076683;28;20469;-79
2023/03/04 11:48:39;;;;;;;18.30;17.20;;;;;;;;;;5072031;28;20426;-79
2023/03/04 11:51:09;;;;;;;19.10;17.80;;;;;;;;;;5076957;28;20463;-79
2023/03/04 11:53:45;;;;;;;19.57;17.97;;;;;;;;;;5077097;28;20443;-79
2023/03/04 11:56:27;;;;;;;19.33;18.27;;;;;;;;;;5077154;28;20481;-79
2023/03/04 11:59:03;;;;;;;18.50;17.40;;;;;;;;;;5077365;28;20466;-79
2023/03/04 12:01:34;;;;;;;19.03;17.83;;;;;;;;;;5077860;28;21537;-79
2023/03/04 12:04:19;;;;;;;18.43;17.10;;;;;;;;;;5078271;28;20457;-79
2023/03/04 12:06:51;;;;;;;19.25;17.95;;;;;;;;;;5076855;28;20524;-79
2023/03/04 12:09:30;;;;;;;19.73;18.47;;;;;;;;;;5078310;28;20241;-79
2023/03/04 12:12:02;;;;;;;18.25;17.05;;;;;;;;;;5078452;28;20412;-80
2023/03/04 12:14:32;;;;;;;18.85;17.40;;;;;;;;;;5077957;28;20189;-79
2023/03/04 12:17:08;;;;;;;17.90;16.80;;;;;;;;;;5080198;28;20228;-79
2023/03/04 12:19:41;;;;;;;19.20;18.13;;;;;;;;;;5079162;28;20435;-79
2023/03/04 12:22:38;;;;;;;20.47;19.03;;;;;;;;;;5079422;28;20906;-79
2023/03/04 12:25:20;;;;;;;19.93;18.60;;;;;;;;;;5020067;28;20435;-79
2023/03/04 12:27:53;;;;;;;18.80;17.60;;;;;;;;;;5073676;28;20438;-79
2023/03/04 12:30:30;;;;;;;19.57;18.43;;;;;;;;;;5080520;28;20412;-79
2023/03/04 12:33:01;;;;;;;20.30;18.80;;;;;;;;;;5080358;28;20409;-79
2023/03/04 12:35:34;;;;;;;19.80;18.80;;;;;;;;;;5080252;28;20435;-79
2023/03/04 12:38:06;;;;;;;21.80;20.37;;;;;;;;;;5080404;28;20439;-79
2023/03/04 12:40:38;;;;;;;20.87;19.40;;;;;;;;;;5078763;28;20415;-79
2023/03/04 12:43:15;;;;;;;26.17;20.53;;;;;;;;;;5078107;28;20410;-79
2023/03/04 12:45:47;;;;;;;21.77;20.20;;;;;;;;;;5078576;28;20532;-79
2023/03/04 12:48:20;;;;;;;21.50;19.73;;;;;;;;;;5078839;28;20403;-79
2023/03/04 12:50:53;;;;;;;21.70;20.20;;;;;;;;;;5079021;28;20436;-80
2023/03/04 12:53:28;;;;;;;21.17;19.80;;;;;;;;;;5077312;28;20408;-80
2023/03/04 12:55:56;;;;;;;21.80;20.17;;;;;;;;;;5077715;28;20445;-79
2023/03/04 12:58:26;;;;;;;21.33;20.03;;;;;;;;;;5078943;28;20444;-79
2023/03/04 13:00:58;;;;;;;20.70;19.40;;;;;;;;;;5079798;28;20813;-79
2023/03/04 13:03:31;;;;;;;20.33;19.13;;;;;;;;;;5079758;28;20406;-79
2023/03/04 13:06:03;;;;;;;21.10;19.37;;;;;;;;;;5079015;28;20466;-78
2023/03/04 13:08:32;;;;;;;20.40;18.90;;;;;;;;;;5078235;28;20412;-79
2023/03/04 13:11:03;;;;;;;21.70;19.70;;;;;;;;;;5077961;28;20471;-79
2023/03/04 13:13:39;;;;;;;20.70;19.37;;;;;;;;;;5080457;28;20471;-78
2023/03/04 13:16:07;;;;;;;20.63;19.43;;;;;;;;;;5081615;28;20429;-78
2023/03/04 13:18:35;;;;;;;20.93;19.50;;;;;;;;;;5078409;28;20912;-77
2023/03/04 13:21:07;;;;;;;20.93;19.63;;;;;;;;;;5078182;28;20436;-78
2023/03/04 13:23:34;;;;;;;21.73;19.93;;;;;;;;;;5077692;28;20437;-79
2023/03/04 13:26:22;;;;;;;21.43;19.57;;;;;;;;;;5077683;28;20491;-78
2023/03/04 13:28:54;;;;;;;20.63;19.30;;;;;;;;;;5073074;28;20501;-78
2023/03/04 13:31:25;;;;;;;20.73;19.00;;;;;;;;;;5077641;28;20426;-78
2023/03/04 13:34:02;;;;;;;20.07;18.57;;;;;;;;;;5082464;28;20460;-80
2023/03/04 13:36:30;;;;;;;20.80;19.10;;;;;;;;;;5084348;28;20467;-80
2023/03/04 13:38:59;;;;;;;21.30;19.93;;;;;;;;;;5081434;28;20469;-78
2023/03/04 13:41:31;;;;;;;20.27;19.00;;;;;;;;;;5078646;28;20434;-79
2023/03/04 13:43:59;;;;;;;21.90;20.30;;;;;;;;;;5079788;28;20400;-78
2023/03/04 13:46:30;;;;;;;20.77;19.33;;;;;;;;;;5078182;28;20464;-79
2023/03/04 13:49:02;;;;;;;21.03;19.47;;;;;;;;;;5077907;28;20428;-79
2023/03/04 13:51:30;;;;;;;21.53;19.97;;;;;;;;;;5077615;28;20419;-79
2023/03/04 13:54:07;;;;;;;20.40;19.20;;;;;;;;;;5081498;28;20501;-79
2023/03/04 13:56:35;;;;;;;20.47;19.07;;;;;;;;;;5081143;28;20471;-80
2023/03/04 13:59:12;;;;;;;21.17;19.77;;;;;;;;;;5080585;28;20448;-79
2023/03/04 14:01:49;;;;;;;20.57;19.27;;;;;;;;;;5079126;28;20405;-79
2023/03/04 14:04:17;;;;;;;18.97;17.97;;;;;;;;;;5079857;28;20443;-79
2023/03/04 14:06:45;;;;;;;20.40;19.10;;;;;;;;;;5080819;28;20547;-80
2023/03/04 14:09:13;;;;;;;19.27;18.27;;;;;;;;;;5082103;28;20468;-78
2023/03/04 14:11:41;;;;;;;21.17;19.37;;;;;;;;;;5081652;28;20862;-80
2023/03/04 14:14:12;;;;;;;20.80;19.40;;;;;;;;;;5081586;28;20975;-78
2023/03/04 14:16:40;;;;;;;21.00;19.40;;;;;;;;;;5082340;28;20472;-80
2023/03/04 14:19:08;;;;;;;21.20;19.70;;;;;;;;;;5082770;28;20794;-80
2023/03/04 14:21:36;;;;;;;21.50;20.07;;;;;;;;;;5081573;28;20270;-80
2023/03/04 14:24:05;;;;;;;21.52;20.08;;;;;;;;;;5079337;28;20432;-79
2023/03/04 14:26:32;;;;;;;21.50;20.10;;;;;;;;;;5076692;28;20595;-79